Terminal Aerodrome Forecast
Issued by NWS Pueblo, CO

Home | Current Version | Previous Version | Text Only | Print | Product List | Glossary On
Versions: 1 2 3 4 5 6 7 8 9 10 11 12 13 14 15 16 17 18 19 20 21 22 23 24 25
000
FTUS45 KPUB 220528
TAFALS
TAF
KALS 220528Z 2206/2306 VRB05KT P6SM BKN100
     FM220800 VRB05KT P6SM SCT080 BKN100
     FM221700 19008KT P6SM VCTS BKN070CB
     FM221900 28012KT P6SM VCTS BKN050CB=

USA.gov is the U.S. government's official web portal to all federal, state and local government web resources and services.